createdAt,value
2019-03-30T00:00:10.659Z,0.00
2019-03-30T00:01:10.616Z,0.00
2019-03-30T00:02:10.605Z,0.00
2019-03-30T00:03:10.619Z,0.00
2019-03-30T00:04:10.585Z,0.00
2019-03-30T00:05:10.579Z,0.00
2019-03-30T00:06:10.571Z,0.00
2019-03-30T00:07:10.650Z,0.00
2019-03-30T00:08:10.542Z,0.00
2019-03-30T00:09:10.529Z,0.00
2019-03-30T00:10:10.517Z,0.00
2019-03-30T00:11:10.528Z,0.00
2019-03-30T00:12:10.498Z,0.00
2019-03-30T00:13:10.511Z,0.00
2019-03-30T00:14:10.503Z,0.00
2019-03-30T00:15:10.462Z,0.00
2019-03-30T00:16:10.455Z,0.00
2019-03-30T00:17:10.453Z,0.00
2019-03-30T00:18:10.455Z,0.00
2019-03-30T00:19:10.416Z,0.00
2019-03-30T00:20:10.419Z,0.00
2019-03-30T00:21:10.395Z,0.00
2019-03-30T00:22:10.381Z,0.00
2019-03-30T00:23:10.393Z,0.00
2019-03-30T00:24:10.360Z,0.00
2019-03-30T00:25:10.357Z,0.00
2019-03-30T00:26:10.335Z,0.00
2019-03-30T00:27:10.347Z,0.00
2019-03-30T00:28:10.339Z,0.00
2019-03-30T00:29:10.302Z,0.00
2019-03-30T00:30:10.291Z,0.00
2019-03-30T00:31:10.285Z,0.00
2019-03-30T00:32:10.329Z,0.00
2019-03-30T00:33:10.257Z,0.00
2019-03-30T00:34:10.273Z,0.00
2019-03-30T00:35:10.235Z,0.00
2019-03-30T00:36:10.223Z,0.00
2019-03-30T00:37:10.228Z,0.00
2019-03-30T00:38:10.236Z,0.00
2019-03-30T00:39:10.190Z,0.00
2019-03-30T00:40:10.180Z,0.00
2019-03-30T00:41:10.172Z,0.00
2019-03-30T00:42:10.157Z,0.00
2019-03-30T00:43:10.209Z,0.00
2019-03-30T00:44:10.135Z,0.00
2019-03-30T00:45:10.123Z,0.00
2019-03-30T00:46:10.111Z,0.00
2019-03-30T00:47:10.099Z,0.00
2019-03-30T00:48:10.110Z,0.00
2019-03-30T00:49:10.083Z,0.00
2019-03-30T00:50:10.094Z,0.00
2019-03-30T00:51:10.063Z,0.00
2019-03-30T00:52:10.073Z,0.00
2019-03-30T00:53:10.040Z,0.00
2019-03-30T00:54:10.050Z,0.00
2019-03-30T00:55:10.020Z,0.00
2019-03-30T00:56:10.006Z,0.00
2019-03-30T00:57:10.000Z,0.00
2019-03-30T00:58:10.002Z,0.00
2019-03-30T00:59:09.967Z,0.00
2019-03-30T01:00:09.979Z,0.00
2019-03-30T01:01:09.942Z,0.00
2019-03-30T01:02:09.933Z,0.00
2019-03-30T01:03:09.954Z,0.00
2019-03-30T01:04:09.916Z,0.00
2019-03-30T01:05:09.913Z,0.00
2019-03-30T01:06:09.890Z,0.00
2019-03-30T01:07:09.897Z,0.00
2019-03-30T01:08:09.887Z,0.00
2019-03-30T01:09:09.877Z,0.00
2019-03-30T01:10:09.844Z,0.00
2019-03-30T01:11:09.864Z,0.00
2019-03-30T01:12:09.824Z,0.00
2019-03-30T01:13:09.816Z,0.00
2019-03-30T01:14:09.798Z,0.00
2019-03-30T01:15:09.786Z,0.00
2019-03-30T01:16:09.807Z,0.00
2019-03-30T01:17:09.765Z,0.00
2019-03-30T01:18:09.768Z,0.00
2019-03-30T01:19:09.742Z,0.00
2019-03-30T01:20:09.735Z,0.00
2019-03-30T01:21:09.743Z,0.00
2019-03-30T01:22:09.709Z,0.00
2019-03-30T01:23:09.696Z,0.00
2019-03-30T01:24:09.697Z,0.00
2019-03-30T01:25:09.679Z,0.00
2019-03-30T01:26:09.695Z,0.00
2019-03-30T01:27:09.654Z,0.00
2019-03-30T01:28:09.641Z,0.00
2019-03-30T01:29:09.641Z,0.00
2019-03-30T01:30:22.578Z,0.00
2019-03-30T01:31:10.638Z,0.00
2019-03-30T01:32:09.608Z,0.00
2019-03-30T01:33:09.601Z,0.00
2019-03-30T01:34:09.572Z,0.00
2019-03-30T01:35:09.667Z,0.00
2019-03-30T01:36:09.550Z,0.00
2019-03-30T01:37:09.566Z,0.00
2019-03-30T01:38:09.527Z,0.00
2019-03-30T01:39:09.521Z,0.00
2019-03-30T01:40:09.528Z,0.00
2019-03-30T01:41:09.492Z,0.00
2019-03-30T01:42:09.483Z,0.00
2019-03-30T01:43:09.471Z,0.00
2019-03-30T01:44:09.460Z,0.00
2019-03-30T01:45:09.471Z,0.00
2019-03-30T01:46:09.444Z,0.00
2019-03-30T01:47:09.426Z,0.00
2019-03-30T01:48:09.432Z,0.00
2019-03-30T01:49:09.403Z,0.00
2019-03-30T01:50:17.034Z,0.00
2019-03-30T01:51:10.384Z,0.00
2019-03-30T01:52:09.383Z,0.00
2019-03-30T01:53:09.381Z,0.00
2019-03-30T01:54:09.351Z,0.00
2019-03-30T01:55:09.365Z,0.00
2019-03-30T01:56:09.325Z,0.00
2019-03-30T01:57:09.314Z,0.00
2019-03-30T01:58:09.313Z,0.00
2019-03-30T01:59:09.334Z,0.00
2019-03-30T02:00:09.284Z,0.00
2019-03-30T02:01:09.274Z,0.00
2019-03-30T02:02:09.285Z,0.00
2019-03-30T02:03:09.250Z,0.00
2019-03-30T02:04:09.235Z,0.00
2019-03-30T02:05:09.227Z,0.00
2019-03-30T02:06:09.218Z,0.00
2019-03-30T02:07:09.236Z,0.00
2019-03-30T02:08:09.197Z,0.00
2019-03-30T02:09:09.212Z,0.00
2019-03-30T02:10:09.171Z,0.00
2019-03-30T02:11:09.159Z,0.00
2019-03-30T02:12:09.146Z,0.00
2019-03-30T02:13:09.136Z,0.00
2019-03-30T02:14:09.178Z,0.00
2019-03-30T02:15:09.136Z,0.00
2019-03-30T02:16:09.104Z,0.00
2019-03-30T02:17:09.094Z,0.00
2019-03-30T02:18:09.081Z,0.00
2019-03-30T02:19:09.092Z,0.00
2019-03-30T02:20:09.083Z,0.00
2019-03-30T02:21:09.090Z,0.00
2019-03-30T02:22:09.039Z,0.00
2019-03-30T02:23:09.026Z,0.00
2019-03-30T02:24:09.033Z,0.00
2019-03-30T02:25:09.001Z,0.00
2019-03-30T02:26:09.022Z,0.00
2019-03-30T02:27:08.983Z,0.00
2019-03-30T02:28:08.969Z,0.00
2019-03-30T02:29:08.957Z,0.00
2019-03-30T02:30:08.969Z,0.00
2019-03-30T02:31:08.962Z,0.00
2019-03-30T02:32:08.926Z,0.00
2019-03-30T02:33:08.921Z,0.00
2019-03-30T02:34:08.902Z,0.00
2019-03-30T02:35:08.896Z,0.00
2019-03-30T02:36:08.925Z,0.00
2019-03-30T02:37:08.900Z,0.00
2019-03-30T02:38:08.882Z,0.00
2019-03-30T02:39:08.857Z,0.00
2019-03-30T02:40:08.837Z,0.00
2019-03-30T02:41:08.824Z,0.00
2019-03-30T02:42:08.821Z,0.00
2019-03-30T02:43:08.851Z,0.00
2019-03-30T02:44:08.795Z,0.00
2019-03-30T02:45:08.780Z,0.00
2019-03-30T02:46:08.770Z,0.00
2019-03-30T02:47:08.760Z,0.00
2019-03-30T02:48:08.779Z,0.00
2019-03-30T02:49:08.746Z,0.00
2019-03-30T02:50:08.733Z,0.00
2019-03-30T02:51:08.716Z,0.00
2019-03-30T02:52:08.717Z,0.00
2019-03-30T02:53:08.729Z,0.00
2019-03-30T02:54:08.692Z,0.00
2019-03-30T02:55:12.359Z,0.00
2019-03-30T02:56:08.662Z,0.00
2019-03-30T02:57:08.651Z,0.00
2019-03-30T02:58:08.660Z,0.00
2019-03-30T02:59:08.628Z,0.00
2019-03-30T03:00:08.622Z,0.00
2019-03-30T03:01:08.603Z,0.00
2019-03-30T03:02:08.590Z,0.00
2019-03-30T03:03:08.604Z,0.00
2019-03-30T03:04:08.690Z,0.00
2019-03-30T03:05:08.588Z,0.00
2019-03-30T03:06:08.553Z,0.00
2019-03-30T03:07:08.558Z,0.00
2019-03-30T03:08:08.529Z,0.00
2019-03-30T03:09:08.536Z,0.00
2019-03-30T03:10:08.527Z,0.00
2019-03-30T03:11:08.515Z,0.00
2019-03-30T03:12:08.480Z,0.00
2019-03-30T03:13:08.474Z,0.00
2019-03-30T03:14:08.502Z,0.00
2019-03-30T03:15:08.455Z,0.00
2019-03-30T03:16:08.460Z,0.00
2019-03-30T03:17:08.430Z,0.00
2019-03-30T03:18:08.415Z,0.00
2019-03-30T03:19:08.424Z,0.00
2019-03-30T03:20:08.423Z,0.00
2019-03-30T03:21:08.989Z,0.00
2019-03-30T03:22:08.387Z,0.00
2019-03-30T03:23:08.357Z,0.00
2019-03-30T03:24:08.352Z,0.00
2019-03-30T03:25:08.406Z,0.00
2019-03-30T03:26:08.325Z,0.00
2019-03-30T03:27:08.318Z,0.00
2019-03-30T03:28:08.314Z,0.00
2019-03-30T03:29:08.298Z,0.00
2019-03-30T03:30:08.320Z,0.00
2019-03-30T03:31:08.275Z,0.00
2019-03-30T03:32:08.268Z,0.00
2019-03-30T03:33:08.247Z,0.00
2019-03-30T03:34:08.438Z,0.00
2019-03-30T03:35:08.263Z,0.00
2019-03-30T03:36:08.213Z,0.00
2019-03-30T03:37:08.205Z,0.00
2019-03-30T03:38:08.214Z,0.00
2019-03-30T03:39:08.184Z,0.00
2019-03-30T03:40:08.175Z,0.00
2019-03-30T03:41:08.247Z,0.00
2019-03-30T03:42:08.147Z,0.00
2019-03-30T03:43:08.137Z,0.00
2019-03-30T03:44:08.128Z,0.00
2019-03-30T03:45:08.143Z,0.00
2019-03-30T03:46:08.106Z,0.00
2019-03-30T03:47:08.095Z,0.00
2019-03-30T03:48:08.092Z,0.00
2019-03-30T03:49:08.080Z,0.00
2019-03-30T03:50:08.087Z,0.00
2019-03-30T03:51:25.067Z,0.00
2019-03-30T03:52:09.036Z,0.00
2019-03-30T03:53:08.027Z,0.00
2019-03-30T03:54:08.038Z,0.00
2019-03-30T03:55:08.112Z,0.00
2019-03-30T03:56:08.006Z,0.00
2019-03-30T03:57:07.983Z,0.00
2019-03-30T03:58:07.974Z,0.00
2019-03-30T03:59:07.982Z,0.00
2019-03-30T04:00:07.947Z,0.00
2019-03-30T04:01:07.936Z,0.00
2019-03-30T04:02:07.926Z,0.00
2019-03-30T04:03:07.930Z,0.00
2019-03-30T04:04:07.934Z,0.00
2019-03-30T04:05:07.892Z,0.00
2019-03-30T04:06:07.915Z,0.00
2019-03-30T04:07:07.870Z,0.00
2019-03-30T04:08:07.880Z,0.00
2019-03-30T04:09:07.854Z,0.00
2019-03-30T04:10:07.844Z,0.00
2019-03-30T04:11:07.840Z,0.00
2019-03-30T04:12:07.863Z,0.00
2019-03-30T04:13:07.808Z,0.00
2019-03-30T04:14:07.795Z,0.00
2019-03-30T04:15:07.785Z,0.00
2019-03-30T04:16:07.770Z,0.00
2019-03-30T04:17:07.784Z,0.00
2019-03-30T04:18:07.773Z,0.00
2019-03-30T04:19:07.749Z,0.00
2019-03-30T04:20:07.730Z,0.00
2019-03-30T04:21:07.718Z,0.00
2019-03-30T04:22:07.714Z,0.00
2019-03-30T04:23:07.723Z,0.00
2019-03-30T04:24:07.839Z,0.00
2019-03-30T04:25:07.691Z,0.00
2019-03-30T04:26:07.666Z,0.00
2019-03-30T04:27:07.750Z,0.00
2019-03-30T04:28:07.648Z,0.00
2019-03-30T04:29:07.657Z,0.00
2019-03-30T04:30:07.615Z,0.00
2019-03-30T04:31:07.627Z,0.00
2019-03-30T04:32:07.592Z,0.00
2019-03-30T04:33:07.598Z,4.00
2019-03-30T04:34:07.593Z,4.00
2019-03-30T04:35:07.564Z,0.00
2019-03-30T04:36:07.563Z,4.00
2019-03-30T04:37:07.537Z,4.00
2019-03-30T04:38:07.527Z,4.00
2019-03-30T04:39:07.541Z,8.00
2019-03-30T04:40:07.503Z,4.00
2019-03-30T04:41:07.493Z,4.00
2019-03-30T04:42:07.488Z,8.00
2019-03-30T04:43:07.491Z,12.00
2019-03-30T04:44:07.482Z,12.00
2019-03-30T04:45:07.452Z,16.00
2019-03-30T04:46:07.442Z,16.00
2019-03-30T04:47:07.425Z,20.00
2019-03-30T04:48:07.423Z,20.00
2019-03-30T04:49:07.436Z,24.00
2019-03-30T04:50:07.404Z,28.00
2019-03-30T04:51:07.382Z,32.00
2019-03-30T04:52:07.379Z,40.00
2019-03-30T04:53:07.367Z,44.00
2019-03-30T04:54:07.379Z,48.00
2019-03-30T04:55:07.341Z,52.00
2019-03-30T04:56:07.341Z,60.00
2019-03-30T04:57:07.319Z,68.00
2019-03-30T04:58:09.212Z,76.00
2019-03-30T04:59:07.308Z,84.00
2019-03-30T05:00:07.308Z,92.00
2019-03-30T05:01:07.270Z,104.00
2019-03-30T05:02:07.285Z,112.00
2019-03-30T05:03:07.248Z,120.00
2019-03-30T05:04:07.239Z,132.00
2019-03-30T05:05:07.228Z,144.00
2019-03-30T05:06:07.232Z,156.00
2019-03-30T05:07:07.227Z,168.00
2019-03-30T05:08:07.193Z,180.00
2019-03-30T05:09:07.205Z,196.00
2019-03-30T05:10:07.171Z,212.00
2019-03-30T05:11:07.174Z,228.00
2019-03-30T05:12:07.174Z,244.00
2019-03-30T05:13:07.136Z,264.00
2019-03-30T05:14:07.142Z,284.00
2019-03-30T05:15:07.113Z,304.00
2019-03-30T05:16:07.127Z,324.00
2019-03-30T05:17:07.094Z,348.00
2019-03-30T05:18:07.119Z,364.00
2019-03-30T05:19:07.092Z,384.00
2019-03-30T05:20:07.058Z,404.00
2019-03-30T05:21:07.046Z,428.00
2019-03-30T05:22:12.816Z,452.00
2019-03-30T05:23:08.023Z,476.00
2019-03-30T05:24:07.064Z,496.00
2019-03-30T05:25:07.008Z,528.00
2019-03-30T05:26:06.992Z,556.00
2019-03-30T05:27:07.005Z,580.00
2019-03-30T05:28:06.972Z,612.00
2019-03-30T05:29:06.957Z,640.00
2019-03-30T05:30:06.959Z,668.00
2019-03-30T05:31:06.974Z,704.00
2019-03-30T05:32:06.938Z,744.00
2019-03-30T05:33:06.922Z,776.00
2019-03-30T05:34:06.909Z,804.00
2019-03-30T05:35:06.894Z,836.00
2019-03-30T05:36:06.909Z,860.00
2019-03-30T05:37:06.869Z,884.00
2019-03-30T05:38:06.882Z,904.00
2019-03-30T05:39:06.856Z,928.00
2019-03-30T05:40:06.856Z,952.00
2019-03-30T05:41:06.849Z,976.00
2019-03-30T05:42:06.816Z,1000.00
2019-03-30T05:43:06.805Z,1016.00
2019-03-30T05:44:06.791Z,1036.00
2019-03-30T05:45:06.792Z,1052.00
2019-03-30T05:46:06.796Z,1064.00
2019-03-30T05:47:06.770Z,1088.00
2019-03-30T05:48:06.748Z,1108.00
2019-03-30T05:49:06.857Z,1124.00
2019-03-30T05:50:06.737Z,1136.00
2019-03-30T05:51:06.802Z,1156.00
2019-03-30T05:52:06.718Z,1180.00
2019-03-30T05:53:06.694Z,1220.00
2019-03-30T05:54:06.707Z,1248.00
2019-03-30T05:55:06.902Z,1272.00
2019-03-30T05:56:06.695Z,1296.00
2019-03-30T05:57:06.686Z,1320.00
2019-03-30T05:58:06.640Z,1332.00
2019-03-30T05:59:06.636Z,1356.00
2019-03-30T06:00:06.618Z,1384.00
2019-03-30T06:01:06.647Z,1408.00
2019-03-30T06:02:06.592Z,1432.00
2019-03-30T06:03:06.592Z,1452.00
2019-03-30T06:04:06.585Z,1468.00
2019-03-30T06:05:06.579Z,1484.00
2019-03-30T06:06:06.572Z,1504.00
2019-03-30T06:07:06.652Z,1520.00
2019-03-30T06:08:06.526Z,1536.00
2019-03-30T06:09:06.526Z,1548.00
2019-03-30T06:10:06.503Z,1564.00
2019-03-30T06:11:06.494Z,1572.00
2019-03-30T06:12:06.516Z,1584.00
2019-03-30T06:13:06.470Z,1608.00
2019-03-30T06:14:06.462Z,1624.00
2019-03-30T06:15:06.465Z,1640.00
2019-03-30T06:16:06.437Z,1656.00
2019-03-30T06:17:06.455Z,1680.00
2019-03-30T06:18:06.421Z,1696.00
2019-03-30T06:19:06.402Z,1704.00
2019-03-30T06:20:06.394Z,1716.00
2019-03-30T06:21:06.416Z,1736.00
2019-03-30T06:22:06.371Z,1752.00
2019-03-30T06:23:06.359Z,1768.00
2019-03-30T06:24:06.350Z,1784.00
2019-03-30T06:25:06.378Z,1784.00
2019-03-30T06:26:06.411Z,1736.00
2019-03-30T06:27:06.315Z,1764.00
2019-03-30T06:28:06.357Z,1812.00
2019-03-30T06:29:06.299Z,1828.00
2019-03-30T06:30:06.280Z,1840.00
2019-03-30T06:31:06.303Z,1840.00
2019-03-30T06:32:06.270Z,1848.00
2019-03-30T06:33:06.251Z,1860.00
2019-03-30T06:34:06.267Z,1876.00
2019-03-30T06:35:06.229Z,1892.00
2019-03-30T06:36:06.213Z,1928.00
2019-03-30T06:37:06.204Z,1948.00
2019-03-30T06:38:06.194Z,1952.00
2019-03-30T06:39:06.214Z,1944.00
2019-03-30T06:40:06.180Z,1880.00
2019-03-30T06:41:06.155Z,1936.00
2019-03-30T06:42:06.149Z,1976.00
2019-03-30T06:43:07.949Z,2004.00
2019-03-30T06:44:06.157Z,2016.00
2019-03-30T06:45:06.111Z,2012.00
2019-03-30T06:46:06.103Z,1916.00
2019-03-30T06:47:06.240Z,1944.00
2019-03-30T06:48:06.100Z,1988.00
2019-03-30T06:49:06.069Z,2024.00
2019-03-30T06:50:06.063Z,2056.00
2019-03-30T06:51:06.067Z,2076.00
2019-03-30T06:52:06.056Z,2096.00
2019-03-30T06:53:06.022Z,2104.00
2019-03-30T06:54:06.034Z,2120.00
2019-03-30T06:55:06.006Z,2136.00
2019-03-30T06:56:05.996Z,2148.00
2019-03-30T06:57:06.025Z,2164.00
2019-03-30T06:58:05.969Z,2184.00
2019-03-30T06:59:05.990Z,2200.00
2019-03-30T07:00:05.972Z,2220.00
2019-03-30T07:01:05.949Z,2244.00
2019-03-30T07:02:05.926Z,2264.00
2019-03-30T07:03:05.915Z,2280.00
2019-03-30T07:04:05.944Z,2304.00
2019-03-30T07:05:05.890Z,2336.00
2019-03-30T07:06:05.899Z,2380.00
2019-03-30T07:07:05.866Z,2420.00
2019-03-30T07:08:05.853Z,2464.00
2019-03-30T07:09:05.843Z,2500.00
2019-03-30T07:10:05.835Z,2524.00
2019-03-30T07:11:20.200Z,2548.00
2019-03-30T07:12:06.811Z,2568.00
2019-03-30T07:13:05.930Z,2604.00
2019-03-30T07:14:05.786Z,2644.00
2019-03-30T07:15:05.775Z,2688.00
2019-03-30T07:16:05.781Z,2728.00
2019-03-30T07:17:05.757Z,2776.00
2019-03-30T07:18:05.783Z,2820.00
2019-03-30T07:19:05.754Z,2860.00
2019-03-30T07:20:05.779Z,2908.00
2019-03-30T07:21:05.713Z,2960.00
2019-03-30T07:22:05.713Z,3004.00
2019-03-30T07:23:12.271Z,3044.00
2019-03-30T07:24:06.677Z,3076.00
2019-03-30T07:25:05.693Z,3112.00
2019-03-30T07:26:05.690Z,3148.00
2019-03-30T07:27:05.651Z,3188.00
2019-03-30T07:28:05.664Z,3224.00
2019-03-30T07:29:05.636Z,3268.00
2019-03-30T07:30:05.633Z,3300.00
2019-03-30T07:31:05.595Z,3312.00
2019-03-30T07:32:05.588Z,3324.00
2019-03-30T07:33:05.660Z,3364.00
2019-03-30T07:34:05.587Z,3396.00
2019-03-30T07:35:05.619Z,3436.00
2019-03-30T07:36:05.557Z,3464.00
2019-03-30T07:37:05.540Z,3492.00
2019-03-30T07:38:05.566Z,3500.00
2019-03-30T07:39:05.510Z,3524.00
2019-03-30T07:40:05.498Z,3560.00
2019-03-30T07:41:05.555Z,3588.00
2019-03-30T07:42:05.478Z,3604.00
2019-03-30T07:43:05.468Z,3612.00
2019-03-30T07:44:05.462Z,3632.00
2019-03-30T07:45:05.470Z,3652.00
2019-03-30T07:46:05.433Z,3668.00
2019-03-30T07:47:05.445Z,3680.00
2019-03-30T07:48:05.428Z,3700.00
2019-03-30T07:49:05.401Z,3716.00
2019-03-30T07:50:05.413Z,3728.00
2019-03-30T07:51:05.376Z,3756.00
2019-03-30T07:52:05.442Z,3764.00
2019-03-30T07:53:05.347Z,3804.00
2019-03-30T07:54:05.352Z,3812.00
2019-03-30T07:55:05.329Z,3836.00
2019-03-30T07:56:08.531Z,3856.00
2019-03-30T07:57:16.360Z,3876.00
2019-03-30T07:58:06.331Z,3884.00
2019-03-30T07:59:05.322Z,3896.00
2019-03-30T08:00:05.317Z,3908.00
2019-03-30T08:01:05.266Z,3888.00
2019-03-30T08:02:05.248Z,3944.00
2019-03-30T08:03:05.329Z,3956.00
2019-03-30T08:04:05.224Z,3968.00
2019-03-30T08:05:05.231Z,3964.00
2019-03-30T08:06:05.206Z,3976.00
2019-03-30T08:07:05.194Z,3992.00
2019-03-30T08:08:05.205Z,4008.00
2019-03-30T08:09:05.166Z,4016.00
2019-03-30T08:10:05.155Z,4024.00
2019-03-30T08:11:05.203Z,4036.00
2019-03-30T08:12:05.144Z,4040.00
2019-03-30T08:13:05.122Z,4056.00
2019-03-30T08:14:05.116Z,4068.00
2019-03-30T08:15:05.102Z,4092.00
2019-03-30T08:16:05.112Z,4116.00
2019-03-30T08:17:05.078Z,4120.00
2019-03-30T08:18:05.071Z,4140.00
2019-03-30T08:19:05.067Z,4164.00
2019-03-30T08:20:05.043Z,4176.00
2019-03-30T08:21:05.068Z,4208.00
2019-03-30T08:22:05.020Z,4232.00
2019-03-30T08:23:05.009Z,4252.00
2019-03-30T08:24:05.000Z,4276.00
2019-03-30T08:25:04.999Z,4304.00
2019-03-30T08:26:04.999Z,4328.00
2019-03-30T08:27:04.963Z,4352.00
2019-03-30T08:28:04.952Z,4376.00
2019-03-30T08:29:04.982Z,4396.00
2019-03-30T08:30:04.955Z,4412.00
2019-03-30T08:31:04.920Z,4420.00
2019-03-30T08:32:04.920Z,4428.00
2019-03-30T08:33:04.897Z,4448.00
2019-03-30T08:34:04.885Z,4484.00
2019-03-30T08:35:04.920Z,4484.00
2019-03-30T08:36:04.866Z,4524.00
2019-03-30T08:37:04.851Z,4556.00
2019-03-30T08:38:04.840Z,4588.00
2019-03-30T08:39:04.892Z,4604.00
2019-03-30T08:40:04.831Z,4612.00
2019-03-30T08:41:04.807Z,4632.00
2019-03-30T08:42:04.796Z,4668.00
2019-03-30T08:43:04.786Z,4672.00
2019-03-30T08:44:04.805Z,4704.00
2019-03-30T08:45:04.767Z,4744.00
2019-03-30T08:46:04.755Z,4768.00
2019-03-30T08:47:04.742Z,4828.00
2019-03-30T08:48:04.730Z,4852.00
2019-03-30T08:49:04.761Z,4880.00
2019-03-30T08:50:04.741Z,4832.00
2019-03-30T08:51:04.701Z,4848.00
2019-03-30T08:52:04.718Z,4856.00
2019-03-30T08:53:04.681Z,4872.00
2019-03-30T08:54:04.676Z,4916.00
2019-03-30T08:55:04.672Z,4932.00
2019-03-30T08:56:04.640Z,4956.00
2019-03-30T08:57:04.641Z,4988.00
2019-03-30T08:58:04.620Z,5032.00
2019-03-30T08:59:04.615Z,5040.00
2019-03-30T09:00:04.688Z,5036.00
2019-03-30T09:01:04.590Z,5092.00
2019-03-30T09:02:04.570Z,5104.00
2019-03-30T09:03:04.576Z,5040.00
2019-03-30T09:04:04.552Z,4992.00
2019-03-30T09:05:04.576Z,5024.00
2019-03-30T09:06:04.533Z,5048.00
2019-03-30T09:07:04.523Z,5136.00
2019-03-30T09:08:04.529Z,5092.00
2019-03-30T09:09:04.496Z,5028.00
2019-03-30T09:10:04.506Z,5168.00
2019-03-30T09:11:04.475Z,5176.00
2019-03-30T09:12:04.455Z,5208.00
2019-03-30T09:13:04.476Z,5236.00
2019-03-30T09:14:04.473Z,5176.00
2019-03-30T09:15:04.424Z,5208.00
2019-03-30T09:16:04.447Z,5220.00
2019-03-30T09:17:04.403Z,5252.00
2019-03-30T09:18:04.394Z,5268.00
2019-03-30T09:19:04.387Z,5296.00
2019-03-30T09:20:04.370Z,5312.00
2019-03-30T09:21:04.377Z,5304.00
2019-03-30T09:22:04.358Z,5276.00
2019-03-30T09:23:04.338Z,5304.00
2019-03-30T09:24:09.938Z,5332.00
2019-03-30T09:25:05.310Z,5360.00
2019-03-30T09:26:04.320Z,5392.00
2019-03-30T09:27:04.294Z,5400.00
2019-03-30T09:28:04.306Z,5412.00
2019-03-30T09:29:04.265Z,5424.00
2019-03-30T09:30:04.281Z,5400.00
2019-03-30T09:31:04.245Z,5440.00
2019-03-30T09:32:14.196Z,5444.00
2019-03-30T09:33:05.242Z,5368.00
2019-03-30T09:34:04.211Z,5432.00
2019-03-30T09:35:04.221Z,5452.00
2019-03-30T09:36:04.185Z,5428.00
2019-03-30T09:37:04.181Z,5444.00
2019-03-30T09:38:04.167Z,5488.00
2019-03-30T09:39:04.221Z,5500.00
2019-03-30T09:40:04.141Z,5500.00
2019-03-30T09:41:04.135Z,5492.00
2019-03-30T09:42:04.123Z,5512.00
2019-03-30T09:43:04.107Z,5512.00
2019-03-30T09:44:04.121Z,5520.00
2019-03-30T09:45:04.086Z,5528.00
2019-03-30T09:46:04.112Z,5528.00
2019-03-30T09:47:04.110Z,5540.00
2019-03-30T09:48:04.054Z,5548.00
2019-03-30T09:49:04.043Z,5548.00
2019-03-30T09:50:04.038Z,5520.00
2019-03-30T09:51:04.036Z,5516.00
2019-03-30T09:52:04.018Z,5564.00
2019-03-30T09:53:04.027Z,5564.00
2019-03-30T09:54:04.008Z,5572.00
2019-03-30T09:55:04.003Z,5572.00
2019-03-30T09:56:03.962Z,5568.00
2019-03-30T09:57:03.981Z,5576.00
2019-03-30T09:58:03.940Z,5584.00
2019-03-30T09:59:03.926Z,5588.00
2019-03-30T10:00:03.942Z,5580.00
2019-03-30T10:01:03.942Z,5588.00
2019-03-30T10:02:03.915Z,5600.00
2019-03-30T10:03:06.105Z,5624.00
2019-03-30T10:04:03.870Z,5624.00
2019-03-30T10:05:03.862Z,5632.00
2019-03-30T10:06:03.901Z,5636.00
2019-03-30T10:07:03.846Z,5652.00
2019-03-30T10:08:03.829Z,5624.00
2019-03-30T10:09:03.849Z,5640.00
2019-03-30T10:10:03.802Z,5644.00
2019-03-30T10:11:03.809Z,5664.00
2019-03-30T10:12:03.785Z,5652.00
2019-03-30T10:13:03.771Z,5648.00
2019-03-30T10:14:03.798Z,5688.00
2019-03-30T10:15:03.746Z,5672.00
2019-03-30T10:16:03.735Z,5676.00
2019-03-30T10:17:03.781Z,5704.00
2019-03-30T10:18:03.713Z,5680.00
2019-03-30T10:19:03.721Z,5664.00
2019-03-30T10:20:04.934Z,5664.00
2019-03-30T10:21:03.701Z,5668.00
2019-03-30T10:22:03.670Z,5688.00
2019-03-30T10:23:03.661Z,5668.00
2019-03-30T10:24:03.651Z,5660.00
2019-03-30T10:25:03.661Z,5680.00
2019-03-30T10:26:03.641Z,5676.00
2019-03-30T10:27:03.616Z,5656.00
2019-03-30T10:28:03.603Z,5660.00
2019-03-30T10:29:03.593Z,5672.00
2019-03-30T10:30:03.596Z,5672.00
2019-03-30T10:31:03.587Z,5672.00
2019-03-30T10:32:03.563Z,5688.00
2019-03-30T10:33:03.546Z,5660.00
2019-03-30T10:34:03.536Z,5672.00
2019-03-30T10:35:03.559Z,5592.00
2019-03-30T10:36:03.532Z,5652.00
2019-03-30T10:37:03.505Z,5644.00
2019-03-30T10:38:03.490Z,5688.00
2019-03-30T10:39:03.487Z,5664.00
2019-03-30T10:40:03.516Z,5648.00
2019-03-30T10:41:03.459Z,5704.00
2019-03-30T10:42:03.482Z,5688.00
2019-03-30T10:43:03.436Z,5692.00
2019-03-30T10:44:03.455Z,5708.00
2019-03-30T10:45:03.416Z,5748.00
2019-03-30T10:46:03.450Z,5732.00
2019-03-30T10:47:03.426Z,5724.00
2019-03-30T10:48:03.378Z,5708.00
2019-03-30T10:49:03.370Z,5756.00
2019-03-30T10:50:03.379Z,5716.00
2019-03-30T10:51:03.347Z,5712.00
2019-03-30T10:52:03.357Z,5724.00
2019-03-30T10:53:03.325Z,5728.00
2019-03-30T10:54:03.352Z,5696.00
2019-03-30T10:55:03.302Z,5680.00
2019-03-30T10:56:03.288Z,5700.00
2019-03-30T10:57:03.294Z,5688.00
2019-03-30T10:58:03.281Z,5708.00
2019-03-30T10:59:03.279Z,5708.00
2019-03-30T11:00:03.263Z,5716.00
2019-03-30T11:01:03.303Z,5704.00
2019-03-30T11:02:03.225Z,5680.00
2019-03-30T11:03:03.242Z,5680.00
2019-03-30T11:04:03.202Z,5688.00
2019-03-30T11:05:03.187Z,5692.00
2019-03-30T11:06:03.351Z,5704.00
2019-03-30T11:07:03.170Z,5668.00
2019-03-30T11:08:03.173Z,5656.00
2019-03-30T11:09:03.147Z,5700.00
2019-03-30T11:10:03.156Z,5680.00
2019-03-30T11:11:03.122Z,5684.00
2019-03-30T11:12:03.133Z,5716.00
2019-03-30T11:13:03.107Z,5708.00
2019-03-30T11:14:03.113Z,5708.00
2019-03-30T11:15:03.083Z,5696.00
2019-03-30T11:16:03.067Z,5676.00
2019-03-30T11:17:03.054Z,5684.00
2019-03-30T11:18:03.046Z,5696.00
2019-03-30T11:19:03.045Z,5696.00
2019-03-30T11:20:03.035Z,5708.00
2019-03-30T11:21:03.012Z,5728.00
2019-03-30T11:22:03.576Z,5716.00
2019-03-30T11:23:02.987Z,5708.00
2019-03-30T11:24:06.420Z,5644.00
2019-03-30T11:25:07.815Z,5684.00
2019-03-30T11:26:03.953Z,5712.00
2019-03-30T11:27:02.971Z,5748.00
2019-03-30T11:28:02.929Z,5728.00
2019-03-30T11:29:02.953Z,5696.00
2019-03-30T11:30:02.909Z,5704.00
2019-03-30T11:31:05.415Z,5724.00
2019-03-30T11:32:02.887Z,5700.00
2019-03-30T11:33:02.876Z,5724.00
2019-03-30T11:34:02.899Z,5764.00
2019-03-30T11:35:02.897Z,5760.00
2019-03-30T11:36:02.856Z,5752.00
2019-03-30T11:37:02.833Z,5796.00
2019-03-30T11:38:02.820Z,5824.00
2019-03-30T11:39:02.878Z,5780.00
2019-03-30T11:40:02.805Z,5760.00
2019-03-30T11:41:02.792Z,5816.00
2019-03-30T11:42:02.776Z,5828.00
2019-03-30T11:43:02.792Z,5696.00
2019-03-30T11:44:02.760Z,5732.00
2019-03-30T11:45:02.784Z,5864.00
2019-03-30T11:46:02.774Z,5864.00
2019-03-30T11:47:02.727Z,5884.00
2019-03-30T11:48:02.714Z,5980.00
2019-03-30T11:49:02.734Z,6136.00
2019-03-30T11:50:02.690Z,6148.00
2019-03-30T11:51:02.680Z,6128.00
2019-03-30T11:52:02.673Z,6104.00
2019-03-30T11:53:02.657Z,5916.00
2019-03-30T11:54:02.674Z,6016.00
2019-03-30T11:55:02.661Z,6056.00
2019-03-30T11:56:02.617Z,6060.00
2019-03-30T11:57:02.611Z,6044.00
2019-03-30T11:58:02.596Z,5988.00
2019-03-30T11:59:02.603Z,5984.00
2019-03-30T12:00:02.622Z,6028.00
2019-03-30T12:01:02.565Z,6044.00
2019-03-30T12:02:02.556Z,6092.00
2019-03-30T12:03:02.539Z,6072.00
2019-03-30T12:04:02.528Z,6048.00
2019-03-30T12:05:02.549Z,6020.00
2019-03-30T12:06:02.510Z,6012.00
2019-03-30T12:07:02.533Z,6008.00
2019-03-30T12:08:02.485Z,6028.00
2019-03-30T12:09:02.473Z,6052.00
2019-03-30T12:10:02.516Z,6040.00
2019-03-30T12:11:02.451Z,6076.00
2019-03-30T12:12:02.442Z,6052.00
2019-03-30T12:13:02.429Z,6040.00
2019-03-30T12:14:02.421Z,6000.00
2019-03-30T12:15:02.422Z,6036.00
2019-03-30T12:16:02.418Z,6056.00
2019-03-30T12:17:02.384Z,6080.00
2019-03-30T12:18:02.371Z,6084.00
2019-03-30T12:19:02.388Z,6032.00
2019-03-30T12:20:02.351Z,5980.00
2019-03-30T12:21:02.340Z,5996.00
2019-03-30T12:22:02.337Z,6060.00
2019-03-30T12:23:02.316Z,6044.00
2019-03-30T12:24:02.334Z,5996.00
2019-03-30T12:25:02.308Z,6052.00
2019-03-30T12:26:02.283Z,6044.00
2019-03-30T12:27:02.274Z,6100.00
2019-03-30T12:28:02.291Z,6100.00
2019-03-30T12:29:02.251Z,6104.00
2019-03-30T12:30:02.241Z,6152.00
2019-03-30T12:31:02.306Z,6148.00
2019-03-30T12:32:02.246Z,6156.00
2019-03-30T12:33:02.243Z,6152.00